Terminal Aerodrome Forecast
Issued by NWS Upton, NY

Home | Current Version | Previous Version | Text Only | Print | Product List | Glossary On
Versions: 1 2 3 4 5 6 7 8 9 10 11 12 13 14 15 16 17 18 19 20 21 22 23 24 25 26 27 28 29 30
000
FTUS41 KOKX 211700
TAFLGA
TAF
KLGA 211731Z 2118/2218 17009KT P6SM BKN040 BKN100
     FM220100 14006KT P6SM VCSH SCT020 BKN040
      TEMPO 2204/2208 5SM SHRA BKN020
     FM221000 11006KT 5SM BR VCSH BKN020 OVC040
     FM221600 12008KT P6SM SCT025 BKN050=

USA.gov is the U.S. government's official web portal to all federal, state and local government web resources and services.